Jay Michael — WDD2051 — position and weather

sailwx.info

Track history (hours):
 
Tides and Currents Weather Stations Pressure Air Temp Water Temp Dewpoint Dewpoint Depression Visibility Wind Speed Wind Dir Waves Ship Positions

Jay Michael

More information available from US FCC via Universal Licensing System and Coast Guard Vessel Documentation Center.

Last reported at 2014-Sep-19 13:31 UTC. Time now 2014-Sep-19 13:53 UTC.
Position N 40°27' W 073°54'.

Length 21 m.

Type: Tug. MMSI: 367110280.

Date/timePositionNaut miles runAvg speedWind from/ knotsBaromVisibWave heightAir tempDewpointWater temp
2014-Sep-19 13:31N 40°27' W 073°54'6 5.3
2014-Sep-19 12:22N 40°32' W 073°60'10 3.2
2014-Sep-19 09:16N 40°38' W 074°09'0 0.0
2014-Sep-19 05:28N 40°38' W 074°09'0 0.0
2014-Sep-19 03:24N 40°38' W 074°09'0 0.0
2014-Sep-19 02:33N 40°38' W 074°09'0 0.0
2014-Sep-19 00:25N 40°38' W 074°09'0 0.0
2014-Sep-18 23:30N 40°38' W 074°09'0 0.0
2014-Sep-18 19:23N 40°38' W 074°09'0 0.0
2014-Sep-18 14:32N 40°38' W 074°09'0 0.0
2014-Sep-18 13:33N 40°38' W 074°09'0 0.0
2014-Sep-18 12:34N 40°38' W 074°09'0 0.0
2014-Sep-18 11:33N 40°38' W 074°09'0 0.0
2014-Sep-18 10:33N 40°38' W 074°09'0 0.0
2014-Sep-18 09:19N 40°38' W 074°09'0 0.0
2014-Sep-18 08:30N 40°38' W 074°09'0 0.0
2014-Sep-18 07:26N 40°38' W 074°09'0 0.0
2014-Sep-18 05:27N 40°38' W 074°09'0 0.0
2014-Sep-18 04:33N 40°38' W 074°09'0 0.0
2014-Sep-18 01:28N 40°38' W 074°09'0 0.0
2014-Sep-18 00:30N 40°38' W 074°09'0 0.0
2014-Sep-17 23:32N 40°38' W 074°09'0 0.0
2014-Sep-17 22:22N 40°38' W 074°09'0 0.0
2014-Sep-17 20:15N 40°38' W 074°09'0 0.0
2014-Sep-17 19:27N 40°38' W 074°09'0 0.0
2014-Sep-17 18:19N 40°38' W 074°09'0 0.0
2014-Sep-17 17:12N 40°38' W 074°09'0 0.0
2014-Sep-17 16:33N 40°38' W 074°09'0 0.0
2014-Sep-17 15:29N 40°38' W 074°09'0 0.0
2014-Sep-17 14:29N 40°38' W 074°09'0 0.0
2014-Sep-17 13:27N 40°38' W 074°09'0 0.0
2014-Sep-17 12:31N 40°38' W 074°09'0 0.0
2014-Sep-17 11:32N 40°38' W 074°09'0 0.0
2014-Sep-17 10:31N 40°38' W 074°09'0 0.0
2014-Sep-17 09:33N 40°38' W 074°09'0 0.0
2014-Sep-17 08:30N 40°38' W 074°09'0 0.0
2014-Sep-17 04:21N 40°38' W 074°09'0 0.0
2014-Sep-17 03:33N 40°38' W 074°09'0 0.0
2014-Sep-17 01:32N 40°38' W 074°09'0 0.0
2014-Sep-17 00:06N 40°38' W 074°09'0 0.0
2014-Sep-16 23:16N 40°38' W 074°09'0 0.0
2014-Sep-16 22:26N 40°38' W 074°09'0 0.0
2014-Sep-16 21:33N 40°38' W 074°09'0 0.0
2014-Sep-16 20:20N 40°38' W 074°09'0 0.2
2014-Sep-16 18:27N 40°38' W 074°10'0 0.0
2014-Sep-16 17:28N 40°38' W 074°10'0 0.1
2014-Sep-16 14:28N 40°38' W 074°09'2 0.6
2014-Sep-16 11:25N 40°38' W 074°12'2 1.9
2014-Sep-16 10:26N 40°38' W 074°09'0 0.0
2014-Sep-16 09:31N 40°38' W 074°09'0 0.0
2014-Sep-16 08:30N 40°38' W 074°09'0 0.0
2014-Sep-16 07:16N 40°38' W 074°09'0 0.0
2014-Sep-16 06:27N 40°38' W 074°09'0 0.0
2014-Sep-16 05:24N 40°38' W 074°09'0 0.0
2014-Sep-16 04:25N 40°38' W 074°09'0 0.0
2014-Sep-16 03:25N 40°38' W 074°09'0 0.0
2014-Sep-16 02:33N 40°38' W 074°09'0 0.0
2014-Sep-16 01:33N 40°38' W 074°09'0 0.0
2014-Sep-16 00:21N 40°38' W 074°09'0 0.0
2014-Sep-15 17:09N 40°38' W 074°09'0 0.1
2014-Sep-15 16:27N 40°38' W 074°09'2 2.1
2014-Sep-15 15:33N 40°38' W 074°12'1 0.7
2014-Sep-15 14:33N 40°39' W 074°11'1 1.2
2014-Sep-15 13:33N 40°38' W 074°10'0 0.3
2014-Sep-15 12:28N 40°38' W 074°09'2 1.1
2014-Sep-15 10:32N 40°39' W 074°07'2 2.0
2014-Sep-15 09:31N 40°38' W 074°09'0 0.0
2014-Sep-15 08:33N 40°38' W 074°09'0 0.0
2014-Sep-15 07:33N 40°38' W 074°09'0 0.0
2014-Sep-15 06:33N 40°38' W 074°09'0 0.0
2014-Sep-15 05:32N 40°38' W 074°09'0 0.0
2014-Sep-15 04:31N 40°38' W 074°09'0 0.0
2014-Sep-15 03:33N 40°38' W 074°09'3 2.6
2014-Sep-15 02:26N 40°39' W 074°06'6 5.7
2014-Sep-15 01:27N 40°42' W 073°60'5 5.8
2014-Sep-15 00:33N 40°47' W 073°56'6 6.1
2014-Sep-14 23:33N 40°48' W 073°48'5 4.9
2014-Sep-14 22:33N 40°52' W 073°44'6 5.8
2014-Sep-14 21:31N 40°56' W 073°38'6 6.5
2014-Sep-14 20:33N 40°58' W 073°30'7 6.6
2014-Sep-14 19:33N 40°60' W 073°22'7 6.8
2014-Sep-14 18:33N 41°01' W 073°13'7 7.1
2014-Sep-14 17:33N 41°03' W 073°04'7 7.1
2014-Sep-14 16:33N 41°04' W 072°55'7 7.2
2014-Sep-14 15:33N 41°06' W 072°45'7 7.1
2014-Sep-14 14:33N 41°08' W 072°36'7 6.7
2014-Sep-14 13:33N 41°10' W 072°28'6 5.8
2014-Sep-14 12:33N 41°12' W 072°21'5 4.8
2014-Sep-14 11:34N 41°13' W 072°15'5 4.7
2014-Sep-14 10:33N 41°15' W 072°09'5 4.8
2014-Sep-14 09:33N 41°14' W 072°02'6 5.6
2014-Sep-14 08:33N 41°15' W 071°55'7 6.8
2014-Sep-14 07:33N 41°16' W 071°46'7 7.0
2014-Sep-14 06:34N 41°17' W 071°37'7 7.1
2014-Sep-14 05:33N 41°18' W 071°27'7 6.9
2014-Sep-14 04:33N 41°19' W 071°18'7 6.9
2014-Sep-14 03:33N 41°22' W 071°10'19 2.4
2014-Sep-13 19:33N 41°38' W 070°55'0 0.0
2014-Sep-13 16:24N 41°38' W 070°55'0 0.0
2014-Sep-13 15:16N 41°38' W 070°55'0 0.0
2014-Sep-13 11:33N 41°38' W 070°55'0 0.0
2014-Sep-13 08:15N 41°38' W 070°55'0 0.0
2014-Sep-13 05:12N 41°38' W 070°55'0 0.0
2014-Sep-13 04:20N 41°38' W 070°55'0 0.0
2014-Sep-13 03:31N 41°38' W 070°55'0 0.0
2014-Sep-13 02:31N 41°38' W 070°55'0 0.0
2014-Sep-13 01:33N 41°38' W 070°55'0 0.2
2014-Sep-13 00:33N 41°37' W 070°55'0 0.0
2014-Sep-12 23:32N 41°37' W 070°55'0 0.0
2014-Sep-12 04:13N 41°37' W 070°55'0 0.0
2014-Sep-11 18:30N 41°37' W 070°55'0 0.1
2014-Sep-11 17:31N 41°37' W 070°55'0 0.0
2014-Sep-11 16:10N 41°37' W 070°55'0 0.1
2014-Sep-11 15:30N 41°37' W 070°55'0 0.0
2014-Sep-11 14:33N 41°37' W 070°55'0 0.0
2014-Sep-11 13:30N 41°37' W 070°55'0 0.1
2014-Sep-11 12:32N 41°37' W 070°55'0 0.4
2014-Sep-11 11:34N 41°38' W 070°55'3 2.6
2014-Sep-11 10:34N 41°35' W 070°54'5 5.4
2014-Sep-11 09:34N 41°30' W 070°54'5 5.1
2014-Sep-11 08:33N 41°27' W 070°60'6 5.6
2014-Sep-11 07:33N 41°23' W 071°05'6 5.7
2014-Sep-11 06:33N 41°21' W 071°12'6 6.0
2014-Sep-11 05:33N 41°17' W 071°18'5 4.7
2014-Sep-11 04:33N 41°14' W 071°23'5 5.3
2014-Sep-11 03:33N 41°17' W 071°17'5 5.2
2014-Sep-11 02:33N 41°21' W 071°12'5 5.1
2014-Sep-11 01:33N 41°23' W 071°07'5 4.7
2014-Sep-11 00:33N 41°26' W 071°01'5 4.0
2014-Sep-10 23:20N 41°29' W 070°56'8 2.9
2014-Sep-10 20:25N 41°38' W 070°55'0 0.1
2014-Sep-10 18:22N 41°38' W 070°55'0 0.3
2014-Sep-10 17:20N 41°37' W 070°55'0 0.0
2014-Sep-10 16:29N 41°37' W 070°55'0 0.3
2014-Sep-10 15:25N 41°38' W 070°55'0 0.4
2014-Sep-10 14:31N 41°37' W 070°55'0 0.0
2014-Sep-10 13:15N 41°37' W 070°55'0 0.0
2014-Sep-10 12:05N 41°37' W 070°55'0 0.7
2014-Sep-10 11:33N 41°38' W 070°55'2 1.1
2014-Sep-10 09:32N 41°36' W 070°53'4 4.0
2014-Sep-10 08:33N 41°32' W 070°54'4 3.7
2014-Sep-10 07:33N 41°29' W 070°57'4 3.6
2014-Sep-10 06:33N 41°26' W 071°01'4 4.0
2014-Sep-10 05:34N 41°24' W 071°04'4 4.4
2014-Sep-10 04:32N 41°21' W 071°09'4 4.4
2014-Sep-10 03:33N 41°19' W 071°14'4 4.2
2014-Sep-10 02:33N 41°16' W 071°19'4 4.2
2014-Sep-10 01:33N 41°14' W 071°23'4 4.4
2014-Sep-10 00:33N 41°17' W 071°19'5 4.8
2014-Sep-09 23:33N 41°20' W 071°14'5 4.8
2014-Sep-09 22:33N 41°23' W 071°09'5 4.7
2014-Sep-09 21:32N 41°25' W 071°03'14 3.4
2014-Sep-09 17:30N 41°37' W 070°55'  
Track history (hours):
 
Tides and Currents Weather Stations Pressure Air Temp Water Temp Dewpoint Dewpoint Depression Visibility Wind Speed Wind Dir Waves Ship Positions

Jay Michael

More information available from US FCC via Universal Licensing System and Coast Guard Vessel Documentation Center.

Last reported at 2014-Sep-19 13:31 UTC. Time now 2014-Sep-19 13:53 UTC.
Position N 40°27' W 073°54'.

Length 21 m.

Type: Tug. MMSI: 367110280.

Date/timePositionNaut miles runAvg speedWind from/ knotsBaromVisibWave heightAir tempDewpointWater temp
2014-Sep-19 13:31N 40°27' W 073°54'6 5.3
2014-Sep-19 12:22N 40°32' W 073°60'10 3.2
2014-Sep-19 09:16N 40°38' W 074°09'0 0.0
2014-Sep-19 05:28N 40°38' W 074°09'0 0.0
2014-Sep-19 03:24N 40°38' W 074°09'0 0.0
2014-Sep-19 02:33N 40°38' W 074°09'0 0.0
2014-Sep-19 00:25N 40°38' W 074°09'0 0.0
2014-Sep-18 23:30N 40°38' W 074°09'0 0.0
2014-Sep-18 19:23N 40°38' W 074°09'0 0.0
2014-Sep-18 14:32N 40°38' W 074°09'0 0.0
2014-Sep-18 13:33N 40°38' W 074°09'0 0.0
2014-Sep-18 12:34N 40°38' W 074°09'0 0.0
2014-Sep-18 11:33N 40°38' W 074°09'0 0.0
2014-Sep-18 10:33N 40°38' W 074°09'0 0.0
2014-Sep-18 09:19N 40°38' W 074°09'0 0.0
2014-Sep-18 08:30N 40°38' W 074°09'0 0.0
2014-Sep-18 07:26N 40°38' W 074°09'0 0.0
2014-Sep-18 05:27N 40°38' W 074°09'0 0.0
2014-Sep-18 04:33N 40°38' W 074°09'0 0.0
2014-Sep-18 01:28N 40°38' W 074°09'0 0.0
2014-Sep-18 00:30N 40°38' W 074°09'0 0.0
2014-Sep-17 23:32N 40°38' W 074°09'0 0.0
2014-Sep-17 22:22N 40°38' W 074°09'0 0.0
2014-Sep-17 20:15N 40°38' W 074°09'0 0.0
2014-Sep-17 19:27N 40°38' W 074°09'0 0.0
2014-Sep-17 18:19N 40°38' W 074°09'0 0.0
2014-Sep-17 17:12N 40°38' W 074°09'0 0.0
2014-Sep-17 16:33N 40°38' W 074°09'0 0.0
2014-Sep-17 15:29N 40°38' W 074°09'0 0.0
2014-Sep-17 14:29N 40°38' W 074°09'0 0.0
2014-Sep-17 13:27N 40°38' W 074°09'0 0.0
2014-Sep-17 12:31N 40°38' W 074°09'0 0.0
2014-Sep-17 11:32N 40°38' W 074°09'0 0.0
2014-Sep-17 10:31N 40°38' W 074°09'0 0.0
2014-Sep-17 09:33N 40°38' W 074°09'0 0.0
2014-Sep-17 08:30N 40°38' W 074°09'0 0.0
2014-Sep-17 04:21N 40°38' W 074°09'0 0.0
2014-Sep-17 03:33N 40°38' W 074°09'0 0.0
2014-Sep-17 01:32N 40°38' W 074°09'0 0.0
2014-Sep-17 00:06N 40°38' W 074°09'0 0.0
2014-Sep-16 23:16N 40°38' W 074°09'0 0.0
2014-Sep-16 22:26N 40°38' W 074°09'0 0.0
2014-Sep-16 21:33N 40°38' W 074°09'0 0.0
2014-Sep-16 20:20N 40°38' W 074°09'0 0.2
2014-Sep-16 18:27N 40°38' W 074°10'0 0.0
2014-Sep-16 17:28N 40°38' W 074°10'0 0.1
2014-Sep-16 14:28N 40°38' W 074°09'2 0.6
2014-Sep-16 11:25N 40°38' W 074°12'2 1.9
2014-Sep-16 10:26N 40°38' W 074°09'0 0.0
2014-Sep-16 09:31N 40°38' W 074°09'0 0.0
2014-Sep-16 08:30N 40°38' W 074°09'0 0.0
2014-Sep-16 07:16N 40°38' W 074°09'0 0.0
2014-Sep-16 06:27N 40°38' W 074°09'0 0.0
2014-Sep-16 05:24N 40°38' W 074°09'0 0.0
2014-Sep-16 04:25N 40°38' W 074°09'0 0.0
2014-Sep-16 03:25N 40°38' W 074°09'0 0.0
2014-Sep-16 02:33N 40°38' W 074°09'0 0.0
2014-Sep-16 01:33N 40°38' W 074°09'0 0.0
2014-Sep-16 00:21N 40°38' W 074°09'0 0.0
2014-Sep-15 17:09N 40°38' W 074°09'0 0.1
2014-Sep-15 16:27N 40°38' W 074°09'2 2.1
2014-Sep-15 15:33N 40°38' W 074°12'1 0.7
2014-Sep-15 14:33N 40°39' W 074°11'1 1.2
2014-Sep-15 13:33N 40°38' W 074°10'0 0.3
2014-Sep-15 12:28N 40°38' W 074°09'2 1.1
2014-Sep-15 10:32N 40°39' W 074°07'2 2.0
2014-Sep-15 09:31N 40°38' W 074°09'0 0.0
2014-Sep-15 08:33N 40°38' W 074°09'0 0.0
2014-Sep-15 07:33N 40°38' W 074°09'0 0.0
2014-Sep-15 06:33N 40°38' W 074°09'0 0.0
2014-Sep-15 05:32N 40°38' W 074°09'0 0.0
2014-Sep-15 04:31N 40°38' W 074°09'0 0.0
2014-Sep-15 03:33N 40°38' W 074°09'3 2.6
2014-Sep-15 02:26N 40°39' W 074°06'6 5.7
2014-Sep-15 01:27N 40°42' W 073°60'5 5.8
2014-Sep-15 00:33N 40°47' W 073°56'6 6.1
2014-Sep-14 23:33N 40°48' W 073°48'5 4.9
2014-Sep-14 22:33N 40°52' W 073°44'6 5.8
2014-Sep-14 21:31N 40°56' W 073°38'6 6.5
2014-Sep-14 20:33N 40°58' W 073°30'7 6.6
2014-Sep-14 19:33N 40°60' W 073°22'7 6.8
2014-Sep-14 18:33N 41°01' W 073°13'7 7.1
2014-Sep-14 17:33N 41°03' W 073°04'7 7.1
2014-Sep-14 16:33N 41°04' W 072°55'7 7.2
2014-Sep-14 15:33N 41°06' W 072°45'7 7.1
2014-Sep-14 14:33N 41°08' W 072°36'7 6.7
2014-Sep-14 13:33N 41°10' W 072°28'6 5.8
2014-Sep-14 12:33N 41°12' W 072°21'5 4.8
2014-Sep-14 11:34N 41°13' W 072°15'5 4.7
2014-Sep-14 10:33N 41°15' W 072°09'5 4.8
2014-Sep-14 09:33N 41°14' W 072°02'6 5.6
2014-Sep-14 08:33N 41°15' W 071°55'7 6.8
2014-Sep-14 07:33N 41°16' W 071°46'7 7.0
2014-Sep-14 06:34N 41°17' W 071°37'7 7.1
2014-Sep-14 05:33N 41°18' W 071°27'7 6.9
2014-Sep-14 04:33N 41°19' W 071°18'7 6.9
2014-Sep-14 03:33N 41°22' W 071°10'19 2.4
2014-Sep-13 19:33N 41°38' W 070°55'0 0.0
2014-Sep-13 16:24N 41°38' W 070°55'0 0.0
2014-Sep-13 15:16N 41°38' W 070°55'0 0.0
2014-Sep-13 11:33N 41°38' W 070°55'0 0.0
2014-Sep-13 08:15N 41°38' W 070°55'0 0.0
2014-Sep-13 05:12N 41°38' W 070°55'0 0.0
2014-Sep-13 04:20N 41°38' W 070°55'0 0.0
2014-Sep-13 03:31N 41°38' W 070°55'0 0.0
2014-Sep-13 02:31N 41°38' W 070°55'0 0.0
2014-Sep-13 01:33N 41°38' W 070°55'0 0.2
2014-Sep-13 00:33N 41°37' W 070°55'0 0.0
2014-Sep-12 23:32N 41°37' W 070°55'0 0.0
2014-Sep-12 04:13N 41°37' W 070°55'0 0.0
2014-Sep-11 18:30N 41°37' W 070°55'0 0.1
2014-Sep-11 17:31N 41°37' W 070°55'0 0.0
2014-Sep-11 16:10N 41°37' W 070°55'0 0.1
2014-Sep-11 15:30N 41°37' W 070°55'0 0.0
2014-Sep-11 14:33N 41°37' W 070°55'0 0.0
2014-Sep-11 13:30N 41°37' W 070°55'0 0.1
2014-Sep-11 12:32N 41°37' W 070°55'0 0.4
2014-Sep-11 11:34N 41°38' W 070°55'3 2.6
2014-Sep-11 10:34N 41°35' W 070°54'5 5.4
2014-Sep-11 09:34N 41°30' W 070°54'5 5.1
2014-Sep-11 08:33N 41°27' W 070°60'6 5.6
2014-Sep-11 07:33N 41°23' W 071°05'6 5.7
2014-Sep-11 06:33N 41°21' W 071°12'6 6.0
2014-Sep-11 05:33N 41°17' W 071°18'5 4.7
2014-Sep-11 04:33N 41°14' W 071°23'5 5.3
2014-Sep-11 03:33N 41°17' W 071°17'5 5.2
2014-Sep-11 02:33N 41°21' W 071°12'5 5.1
2014-Sep-11 01:33N 41°23' W 071°07'5 4.7
2014-Sep-11 00:33N 41°26' W 071°01'5 4.0
2014-Sep-10 23:20N 41°29' W 070°56'8 2.9
2014-Sep-10 20:25N 41°38' W 070°55'0 0.1
2014-Sep-10 18:22N 41°38' W 070°55'0 0.3
2014-Sep-10 17:20N 41°37' W 070°55'0 0.0
2014-Sep-10 16:29N 41°37' W 070°55'0 0.3
2014-Sep-10 15:25N 41°38' W 070°55'0 0.4
2014-Sep-10 14:31N 41°37' W 070°55'0 0.0
2014-Sep-10 13:15N 41°37' W 070°55'0 0.0
2014-Sep-10 12:05N 41°37' W 070°55'0 0.7
2014-Sep-10 11:33N 41°38' W 070°55'2 1.1
2014-Sep-10 09:32N 41°36' W 070°53'4 4.0
2014-Sep-10 08:33N 41°32' W 070°54'4 3.7
2014-Sep-10 07:33N 41°29' W 070°57'4 3.6
2014-Sep-10 06:33N 41°26' W 071°01'4 4.0
2014-Sep-10 05:34N 41°24' W 071°04'4 4.4
2014-Sep-10 04:32N 41°21' W 071°09'4 4.4
2014-Sep-10 03:33N 41°19' W 071°14'4 4.2
2014-Sep-10 02:33N 41°16' W 071°19'4 4.2
2014-Sep-10 01:33N 41°14' W 071°23'4 4.4
2014-Sep-10 00:33N 41°17' W 071°19'5 4.8
2014-Sep-09 23:33N 41°20' W 071°14'5 4.8
2014-Sep-09 22:33N 41°23' W 071°09'5 4.7
2014-Sep-09 21:32N 41°25' W 071°03'14 3.4
2014-Sep-09 17:30N 41°37' W 070°55'  

Dump ship's entire track history